LBX weather

Lubang Airport
Mindoro Occidental Province, Philippines

Public forecast

Using degrees Celsius for public forecast. Weather courtesy of forecast.io.

Closest aviation weather report (METAR) to Lubang Airport

Report is more than 2 hours old.

Closest report is Subic Bay International Airport, 57.2 nm (105.9 km) N. Retrieved 2020/07/06 14:00 UTC (3 hours ago):

RPLB 061400Z 04004KT 9999 FEW020 BKN300 27/25 Q1012 NOSIG RMK A2988

Closest aviation forecast (TAF) to Lubang Airport

Closest forecast is Subic Bay International Airport, 57.2 nm (105.9 km) N. Retrieved 2020/07/06 12:06 UTC (5 hours ago):

TAF RPLB 061100Z 0612/0712 21008KT 9999 FEW020 SCT080 BKN300 TX33/0706Z TN25/0621Z TEMPO 0612/0618 22012KT -SHRA FEW018CB SCT020 BKN080